Arsen'yev, Russia
Current Conditions -  °F | °C
As of 7:30 PM on Sunday 23 Nov 2014 (Local Time) from UHWW Reporting Station
Broken Clouds Broken Clouds  
Wind Chill: 30°   Ceiling: 4000
Heat Index: 30°   Visibility: 6mi
Dew Point: 18°   Wind: 2mph
Humidity: 60%   Direction: NA
Pressure: 30.24"   Gusts: NA
Location:  44.1°N, 133.15°E
Report Text: UHWW 230930Z VRB01MPS 9999 BKN040 BKN200 M01/M08 Q1024 NOSIGRMK QFE767/1022 25CLRD70
Loading
Personal Weather Stations






























Interactive Weather Map New forecast layout! Learn more

10-Day Weather Forecast

Advertisements
Track Severe Weather on mobile